createdAt,value
2019-05-07T07:28:32.902Z,101556.63
2019-05-07T07:31:23.375Z,101561.27
2019-05-07T07:33:53.344Z,101552.33
2019-05-07T07:36:24.259Z,101553.83
2019-05-07T07:38:53.480Z,101560.36
2019-05-07T07:41:29.579Z,101555.89
2019-05-07T07:44:02.078Z,101558.95
2019-05-07T07:46:33.048Z,101547.22
2019-05-07T07:49:10.731Z,101552.16
2019-05-07T07:51:41.476Z,101549.81
2019-05-07T07:54:03.832Z,101548.28
2019-05-07T07:56:50.153Z,101548.97
2019-05-07T07:59:28.070Z,101545.83
2019-05-07T08:02:04.101Z,101537.66
2019-05-07T08:04:33.264Z,101538.55
2019-05-07T08:07:05.476Z,101531.08
2019-05-07T08:09:35.561Z,101530.23
2019-05-07T08:12:05.979Z,101524.78
2019-05-07T08:14:35.241Z,101531.23
2019-05-07T08:17:07.996Z,101524.78
2019-05-07T08:19:37.218Z,101525.16
2019-05-07T08:22:06.364Z,101522.10
2019-05-07T08:24:35.537Z,101519.66
2019-05-07T08:27:04.746Z,101521.86
2019-05-07T08:29:33.918Z,101524.06
2019-05-07T08:32:28.454Z,101515.87
2019-05-07T08:35:14.282Z,101513.19
2019-05-07T08:37:43.542Z,101516.56
2019-05-07T08:40:12.991Z,101514.53
2019-05-07T08:42:42.192Z,101516.87
2019-05-07T08:45:28.927Z,101511.52
2019-05-07T08:48:02.076Z,101511.14
2019-05-07T08:50:32.659Z,101512.27
2019-05-07T08:53:02.755Z,101502.38
2019-05-07T08:55:32.342Z,101511.31
2019-05-07T08:58:02.231Z,101509.20
2019-05-07T09:00:32.555Z,101507.21
2019-05-07T09:03:01.922Z,101501.34
2019-05-07T09:05:32.948Z,101496.75
2019-05-07T09:08:02.370Z,101504.23
2019-05-07T09:10:32.451Z,101503.00
2019-05-07T09:13:03.154Z,101494.41
2019-05-07T09:15:32.396Z,101494.39
2019-05-07T09:18:02.120Z,101497.85
2019-05-07T09:20:32.221Z,101493.73
2019-05-07T09:23:02.156Z,101491.13
2019-05-07T09:25:33.646Z,101490.03
2019-05-07T09:28:03.722Z,101487.85
2019-05-07T09:31:03.777Z,101485.82
2019-05-07T09:33:52.228Z,101478.77
2019-05-07T09:36:26.853Z,101484.44
2019-05-07T09:38:59.018Z,101478.45
2019-05-07T09:41:29.734Z,101474.47
2019-05-07T09:43:59.125Z,101479.70
2019-05-07T09:46:28.302Z,101474.76
2019-05-07T09:48:57.850Z,101474.69
2019-05-07T09:51:27.030Z,101468.08
2019-05-07T09:53:56.224Z,101460.64
2019-05-07T09:56:25.363Z,101462.48
2019-05-07T09:58:54.516Z,101467.55
2019-05-07T10:01:23.796Z,101467.87
2019-05-07T10:03:53.067Z,101467.20
2019-05-07T10:06:22.937Z,101462.34
2019-05-07T10:08:52.431Z,101459.80
2019-05-07T10:11:32.919Z,101458.67
2019-05-07T10:14:06.000Z,101458.76
2019-05-07T10:16:52.386Z,101451.52
2019-05-07T10:19:22.251Z,101461.38
2019-05-07T10:21:52.930Z,101450.20
2019-05-07T10:24:22.351Z,101452.11
2019-05-07T10:26:53.066Z,101448.77
2019-05-07T10:29:22.793Z,101439.72
2019-05-07T10:31:52.755Z,101434.95
2019-05-07T10:34:22.840Z,101439.27
2019-05-07T10:36:52.411Z,101433.02
2019-05-07T10:39:22.086Z,101430.83
2019-05-07T10:41:51.276Z,101429.95
2019-05-07T10:44:22.915Z,101427.78
2019-05-07T10:47:09.660Z,101431.37
2019-05-07T10:49:49.510Z,101423.65
2019-05-07T10:52:18.685Z,101422.36
2019-05-07T10:54:59.520Z,101422.34
2019-05-07T10:57:18.774Z,101420.11
2019-05-07T10:59:48.060Z,101416.63
2019-05-07T11:02:22.359Z,101412.30
2019-05-07T11:04:53.226Z,101411.65
2019-05-07T11:07:22.479Z,101412.33
2019-05-07T11:09:52.494Z,101412.20
2019-05-07T11:12:22.907Z,101409.95
2019-05-07T11:14:52.333Z,101403.39
2019-05-07T11:17:49.274Z,101409.59
2019-05-07T11:20:19.455Z,101401.35
2019-05-07T11:22:52.042Z,101395.94
2019-05-07T11:25:22.535Z,101395.66
2019-05-07T11:27:52.382Z,101397.89
2019-05-07T11:30:22.814Z,101394.36
2019-05-07T11:32:52.403Z,101388.53
2019-05-07T11:35:24.717Z,101387.73
2019-05-07T11:37:54.027Z,101383.27
2019-05-07T11:40:23.621Z,101379.05
2019-05-07T11:43:12.902Z,101386.78
2019-05-07T11:45:54.350Z,101384.48
2019-05-07T11:48:24.474Z,101380.83
2019-05-07T11:51:04.373Z,101375.52
2019-05-07T11:53:33.630Z,101369.83
2019-05-07T11:56:02.885Z,101369.84
2019-05-07T11:58:32.654Z,101370.70
2019-05-07T12:01:12.306Z,101363.90
2019-05-07T12:03:42.948Z,101365.55
2019-05-07T12:06:12.512Z,101356.33
2019-05-07T12:08:49.793Z,101356.63
2019-05-07T12:11:13.031Z,101355.83
2019-05-07T12:13:42.753Z,101353.94
2019-05-07T12:16:14.163Z,101345.02
2019-05-07T12:18:43.223Z,101347.67
2019-05-07T12:21:20.133Z,101342.48
2019-05-07T12:23:43.361Z,101340.01
2019-05-07T12:26:12.738Z,101336.89
2019-05-07T12:28:42.034Z,101334.80
2019-05-07T12:31:48.339Z,101335.55
2019-05-07T12:34:22.912Z,101338.04
2019-05-07T12:36:52.486Z,101334.00
2019-05-07T12:39:22.024Z,101330.27
2019-05-07T12:41:52.430Z,101333.62
2019-05-07T12:44:22.215Z,101328.55
2019-05-07T12:46:52.467Z,101323.67
2019-05-07T12:49:22.208Z,101322.03
2019-05-07T12:51:56.778Z,101322.37
2019-05-07T12:54:44.897Z,101318.89
2019-05-07T12:57:14.038Z,101313.93
2019-05-07T12:59:43.235Z,101317.81
2019-05-07T13:02:37.380Z,101322.75
2019-05-07T13:04:58.054Z,101324.80
2019-05-07T13:07:44.317Z,101313.68
2019-05-07T13:10:13.565Z,101314.12
2019-05-07T13:12:42.742Z,101310.16
2019-05-07T13:15:24.102Z,101302.34
2019-05-07T13:17:43.053Z,101305.70
2019-05-07T13:20:12.393Z,101303.91
2019-05-07T13:22:42.679Z,101301.70
2019-05-07T13:25:12.871Z,101298.75
2019-05-07T13:27:42.943Z,101299.34
2019-05-07T13:30:14.352Z,101294.69
2019-05-07T13:32:46.632Z,101288.61
2019-05-07T13:35:16.087Z,101279.03
2019-05-07T13:38:07.851Z,101275.16
2019-05-07T13:40:55.162Z,101267.69
2019-05-07T13:43:29.406Z,101265.70
2019-05-07T13:46:03.078Z,101255.30
2019-05-07T13:48:32.347Z,101260.33
2019-05-07T13:51:02.161Z,101260.11
2019-05-07T13:53:32.138Z,101264.23
2019-05-07T13:56:02.198Z,101252.04
2019-05-07T13:58:32.933Z,101251.52
2019-05-07T14:01:27.559Z,101257.07
2019-05-07T14:03:56.895Z,101244.84
2019-05-07T14:06:43.036Z,101246.04
2019-05-07T14:09:23.875Z,101245.98
2019-05-07T14:11:52.861Z,101251.59
2019-05-07T14:14:22.582Z,101241.70
2019-05-07T14:16:53.013Z,101247.23
2019-05-07T14:19:22.733Z,101240.14
2019-05-07T14:21:52.526Z,101245.58
2019-05-07T14:24:22.579Z,101246.38
2019-05-07T14:26:52.838Z,101246.90
2019-05-07T14:29:24.700Z,101243.53
2019-05-07T14:32:18.207Z,101234.90
2019-05-07T14:35:05.494Z,101230.18
2019-05-07T14:37:38.064Z,101233.95
2019-05-07T14:40:07.571Z,101226.98
2019-05-07T14:42:42.144Z,101223.98
2019-05-07T14:45:11.457Z,101233.83
2019-05-07T14:47:44.402Z,101225.67
2019-05-07T14:50:12.329Z,101222.69
2019-05-07T14:52:43.253Z,101214.68
2019-05-07T14:55:12.975Z,101219.92
2019-05-07T14:57:42.291Z,101214.41
2019-05-07T15:00:12.345Z,101206.41
2019-05-07T15:02:42.108Z,101205.20
2019-05-07T15:05:12.138Z,101202.10
2019-05-07T15:07:41.608Z,101205.80
2019-05-07T15:10:10.871Z,101206.03
2019-05-07T15:12:40.044Z,101204.23
2019-05-07T15:15:09.445Z,101200.29
2019-05-07T15:18:09.836Z,101196.93
2019-05-07T15:20:39.211Z,101191.78
2019-05-07T15:23:27.323Z,101188.64
2019-05-07T15:25:57.062Z,101188.86
2019-05-07T15:28:26.261Z,101184.50
2019-05-07T15:31:04.919Z,101185.44
2019-05-07T15:33:34.086Z,101179.94
2019-05-07T15:36:06.412Z,101178.55
2019-05-07T15:38:34.464Z,101175.94
2019-05-07T15:41:03.782Z,101167.58
2019-05-07T15:43:32.977Z,101165.44
2019-05-07T15:46:02.451Z,101166.86
2019-05-07T15:48:32.618Z,101159.91
2019-05-07T15:51:02.542Z,101163.09
2019-05-07T15:53:55.681Z,101170.59
2019-05-07T15:56:23.958Z,101164.06
2019-05-07T15:58:52.207Z,101160.15
2019-05-07T16:01:22.180Z,101159.11
2019-05-07T16:03:54.392Z,101157.20
2019-05-07T16:06:22.019Z,101153.40
2019-05-07T16:08:53.598Z,101155.42
2019-05-07T16:11:23.237Z,101151.83
2019-05-07T16:14:12.610Z,101151.15
2019-05-07T16:16:45.730Z,101145.97
2019-05-07T16:20:53.624Z,101144.77
2019-05-07T16:23:22.962Z,101146.41
2019-05-07T16:25:52.831Z,101146.64
2019-05-07T16:28:22.104Z,101143.84
2019-05-07T16:30:52.138Z,101140.02
2019-05-07T16:33:21.468Z,101137.53
2019-05-07T16:35:50.750Z,101130.70
2019-05-07T16:38:21.996Z,101127.68
2019-05-07T16:40:52.195Z,101128.19
2019-05-07T16:43:22.110Z,101128.59
2019-05-07T16:45:51.840Z,101123.44
2019-05-07T16:48:23.127Z,101120.73
2019-05-07T16:50:52.326Z,101118.45
2019-05-07T16:53:29.299Z,101120.49
2019-05-07T16:55:52.699Z,101117.41
2019-05-07T16:58:38.402Z,101115.05
2019-05-07T17:01:09.127Z,101119.73
2019-05-07T17:03:45.810Z,101116.36
2019-05-07T17:06:14.987Z,101112.83
2019-05-07T17:08:55.170Z,101111.41
2019-05-07T17:11:24.350Z,101108.39
2019-05-07T17:13:53.537Z,101110.84
2019-05-07T17:16:22.965Z,101110.63
2019-05-07T17:18:52.176Z,101109.83
2019-05-07T17:21:21.852Z,101111.51
2019-05-07T17:23:51.884Z,101102.23
2019-05-07T17:26:23.184Z,101111.96
2019-05-07T17:28:52.229Z,101103.64
2019-05-07T17:31:22.891Z,101102.53
2019-05-07T17:33:52.148Z,101102.95
2019-05-07T17:36:22.403Z,101101.27
2019-05-07T17:38:52.013Z,101104.31
2019-05-07T17:41:26.840Z,101105.37
2019-05-07T17:43:52.338Z,101094.97
2019-05-07T17:46:21.886Z,101101.91
2019-05-07T17:48:52.366Z,101095.19
2019-05-07T17:51:42.090Z,101096.22
2019-05-07T17:54:13.158Z,101098.22
2019-05-07T17:56:42.994Z,101092.45
2019-05-07T17:59:12.484Z,101085.94
2019-05-07T18:02:02.676Z,101084.67
2019-05-07T18:04:47.667Z,101083.05
2019-05-07T18:07:05.184Z,101086.02
2019-05-07T18:09:34.388Z,101079.56
2019-05-07T18:12:03.820Z,101078.91
2019-05-07T18:14:33.114Z,101076.08
2019-05-07T18:17:14.320Z,101074.28
2019-05-07T18:19:44.298Z,101073.31
2019-05-07T18:22:13.647Z,101076.02
2019-05-07T18:24:42.893Z,101069.01
2019-05-07T18:27:18.570Z,101070.61
2019-05-07T18:29:47.791Z,101065.59
2019-05-07T18:32:17.052Z,101067.15
2019-05-07T18:34:46.335Z,101071.14
2019-05-07T18:37:15.623Z,101064.95
2019-05-07T18:39:44.830Z,101066.23
2019-05-07T18:42:14.142Z,101064.16
2019-05-07T18:44:43.386Z,101065.00
2019-05-07T18:47:13.000Z,101061.81
2019-05-07T18:49:44.725Z,101072.06
2019-05-07T18:52:13.341Z,101074.64
2019-05-07T18:54:42.965Z,101069.88
2019-05-07T18:57:12.291Z,101070.06
2019-05-07T18:59:42.283Z,101069.59
2019-05-07T19:02:11.938Z,101069.70
2019-05-07T19:04:42.219Z,101066.09
2019-05-07T19:07:13.210Z,101068.34
2019-05-07T19:09:42.659Z,101065.34
2019-05-07T19:12:13.470Z,101066.75
2019-05-07T19:14:42.894Z,101064.97
2019-05-07T19:17:12.294Z,101062.64
2019-05-07T19:19:41.959Z,101066.28
2019-05-07T19:22:13.587Z,101066.50
2019-05-07T19:24:47.874Z,101064.72
2019-05-07T19:27:15.789Z,101070.53
2019-05-07T19:29:45.922Z,101075.57
2019-05-07T19:32:15.999Z,101077.45
2019-05-07T19:34:45.254Z,101075.20
2019-05-07T19:37:14.619Z,101072.13
2019-05-07T19:39:44.263Z,101075.77
2019-05-07T19:42:16.134Z,101071.37
2019-05-07T19:44:47.702Z,101071.94
2019-05-07T19:47:17.576Z,101065.84
2019-05-07T19:49:47.966Z,101066.89
2019-05-07T19:52:18.091Z,101066.70
2019-05-07T19:54:58.884Z,101062.41
2019-05-07T19:57:23.383Z,101063.34
2019-05-07T19:59:55.168Z,101060.61
2019-05-07T20:02:32.001Z,101059.11
2019-05-07T20:05:03.524Z,101062.81
2019-05-07T20:07:33.101Z,101054.22
2019-05-07T20:10:06.490Z,101052.28
2019-05-07T20:12:38.657Z,101051.50
2019-05-07T20:15:08.435Z,101058.67
2019-05-07T20:17:37.772Z,101055.48
2019-05-07T20:20:09.874Z,101047.59
2019-05-07T20:22:39.317Z,101051.57
2019-05-07T20:25:18.573Z,101052.17
2019-05-07T20:27:43.175Z,101055.08
2019-05-07T20:30:12.819Z,101047.84
2019-05-07T20:32:42.797Z,101044.56
2019-05-07T20:35:12.321Z,101038.41
2019-05-07T20:37:42.109Z,101038.96
2019-05-07T20:40:13.648Z,101035.97
2019-05-07T20:42:42.964Z,101033.36
2019-05-07T20:45:13.453Z,101028.48
2019-05-07T20:47:43.070Z,101024.44
2019-05-07T20:50:12.871Z,101024.05
2019-05-07T20:52:42.139Z,101013.48
2019-05-07T20:55:30.632Z,101009.49
2019-05-07T20:57:54.309Z,101015.41
2019-05-07T21:00:26.429Z,101009.01
2019-05-07T21:03:13.699Z,101004.88
2019-05-07T21:05:42.971Z,101002.01
2019-05-07T21:08:12.259Z,100996.91
2019-05-07T21:10:42.742Z,100991.94
2019-05-07T21:13:26.999Z,100982.52
2019-05-07T21:15:42.924Z,100986.42
2019-05-07T21:18:13.206Z,100976.52
2019-05-07T21:20:42.475Z,100974.70
2019-05-07T21:23:12.338Z,100968.53
2019-05-07T21:25:45.764Z,100962.27
2019-05-07T21:28:12.649Z,100962.14
2019-05-07T21:30:42.702Z,100961.38
2019-05-07T21:33:12.155Z,100963.63
2019-05-07T21:35:42.944Z,100963.41
2019-05-07T21:38:12.785Z,100961.03
2019-05-07T21:40:42.825Z,100967.27
2019-05-07T21:43:14.149Z,100957.70
2019-05-07T21:45:43.190Z,100967.73
2019-05-07T21:48:13.763Z,100961.37
2019-05-07T21:50:43.338Z,100961.84
2019-05-07T21:53:22.883Z,100961.50
2019-05-07T21:56:05.280Z,100958.59
2019-05-07T21:58:43.712Z,100954.52
2019-05-07T22:01:16.654Z,100947.80
2019-05-07T22:03:47.734Z,100949.00
2019-05-07T22:06:16.970Z,100946.22
2019-05-07T22:08:46.111Z,100946.11
2019-05-07T22:11:15.413Z,100938.70
2019-05-07T22:13:44.596Z,100941.70
2019-05-07T22:16:13.749Z,100935.86
2019-05-07T22:18:43.023Z,100935.54
2019-05-07T22:21:12.647Z,100933.47
2019-05-07T22:23:42.779Z,100938.70
2019-05-07T22:26:23.311Z,100935.73
2019-05-07T22:28:43.240Z,100939.27
2019-05-07T22:31:31.374Z,100932.61
2019-05-07T22:34:12.941Z,100928.72
2019-05-07T22:36:43.137Z,100927.86
2019-05-07T22:39:12.702Z,100926.36
2019-05-07T22:41:42.542Z,100914.26
2019-05-07T22:44:12.134Z,100910.64
2019-05-07T22:46:42.189Z,100908.36
2019-05-07T22:49:12.261Z,100898.25
2019-05-07T22:51:41.612Z,100901.88
2019-05-07T22:54:11.858Z,100888.59
2019-05-07T22:57:04.146Z,100893.13
2019-05-07T22:59:33.323Z,100886.66
2019-05-07T23:02:03.242Z,100884.04
2019-05-07T23:04:33.846Z,100881.66
2019-05-07T23:07:04.116Z,100879.59
2019-05-07T23:09:33.394Z,100873.44
2019-05-07T23:12:02.643Z,100869.28
2019-05-07T23:14:32.984Z,100863.56
2019-05-07T23:17:02.401Z,100857.03
2019-05-07T23:19:32.705Z,100856.20
2019-05-07T23:22:03.253Z,100854.75
2019-05-07T23:24:32.473Z,100853.22
2019-05-07T23:27:01.723Z,100852.86
2019-05-07T23:29:33.006Z,100850.61
2019-05-07T23:32:02.114Z,100850.87
2019-05-07T23:34:32.594Z,100846.84
2019-05-07T23:37:02.540Z,100839.00
2019-05-07T23:39:33.888Z,100834.61
2019-05-07T23:42:09.740Z,100831.94
2019-05-07T23:44:38.944Z,100835.30
2019-05-07T23:47:08.314Z,100833.29
2019-05-07T23:49:37.510Z,100831.66
2019-05-07T23:52:06.709Z,100826.33
2019-05-07T23:54:36.022Z,100829.28
2019-05-07T23:57:09.511Z,100828.44
2019-05-07T23:59:36.120Z,100822.86
